createdAt,value
2022-12-18T00:02:12.062Z,69.31
2022-12-18T00:04:38.543Z,69.21
2022-12-18T00:07:05.063Z,68.97
2022-12-18T00:09:40.331Z,69.67
2022-12-18T00:14:45.016Z,70.23
2022-12-18T00:17:11.504Z,69.99
2022-12-18T00:19:37.991Z,68.63
2022-12-18T00:22:04.465Z,67.97
2022-12-18T00:24:30.942Z,67.84
2022-12-18T00:26:57.420Z,68.23
2022-12-18T00:29:23.940Z,67.92
2022-12-18T00:31:50.534Z,68.39
2022-12-18T00:34:17.190Z,69.11
2022-12-18T00:36:43.680Z,69.04
2022-12-18T00:39:11.238Z,69.70
2022-12-18T00:41:56.230Z,70.23
2022-12-18T00:44:22.701Z,70.18
2022-12-18T00:46:49.368Z,71.31
2022-12-18T00:49:17.061Z,70.78
2022-12-18T00:51:43.661Z,70.61
2022-12-18T00:54:11.229Z,70.19
2022-12-18T00:56:48.066Z,70.65
2022-12-18T00:59:15.521Z,70.46
2022-12-18T01:01:42.181Z,70.14
2022-12-18T01:04:08.782Z,68.58
2022-12-18T01:06:35.514Z,68.04
2022-12-18T01:09:02.235Z,67.25
2022-12-18T01:11:28.907Z,68.18
2022-12-18T01:13:55.763Z,68.54
2022-12-18T01:16:22.726Z,69.35
2022-12-18T01:18:51.751Z,69.12
2022-12-18T01:21:19.747Z,69.40
2022-12-18T01:23:46.378Z,68.67
2022-12-18T01:26:14.634Z,68.35
2022-12-18T01:28:41.812Z,68.32
2022-12-18T01:31:15.059Z,68.67
2022-12-18T01:33:41.834Z,67.69
2022-12-18T01:36:08.746Z,69.32
2022-12-18T01:38:35.277Z,68.14
2022-12-18T01:41:02.125Z,68.35
2022-12-18T01:43:43.808Z,68.42
2022-12-18T01:46:10.447Z,69.81
2022-12-18T01:48:36.987Z,69.15
2022-12-18T01:51:04.713Z,70.18
2022-12-18T01:53:31.538Z,68.43
2022-12-18T01:55:58.257Z,68.30
2022-12-18T01:58:25.808Z,68.74
2022-12-18T02:00:52.892Z,68.52
2022-12-18T02:03:20.012Z,68.59
2022-12-18T02:06:01.856Z,68.49
2022-12-18T02:08:47.096Z,70.20
2022-12-18T02:11:20.071Z,68.72
2022-12-18T02:14:05.395Z,68.29
2022-12-18T02:16:44.392Z,68.25
2022-12-18T02:19:26.749Z,68.38
2022-12-18T02:22:05.094Z,69.19
2022-12-18T02:24:35.198Z,70.21
2022-12-18T02:27:02.746Z,70.62
2022-12-18T02:29:32.781Z,68.81
2022-12-18T02:32:01.095Z,68.50
2022-12-18T02:34:28.813Z,68.68
2022-12-18T02:36:55.425Z,69.69
2022-12-18T02:39:22.337Z,69.83
2022-12-18T02:42:09.831Z,69.10
2022-12-18T02:44:36.748Z,69.15
2022-12-18T02:47:04.952Z,68.52
2022-12-18T02:49:31.400Z,68.55
2022-12-18T02:51:59.348Z,68.62
2022-12-18T02:54:36.302Z,68.15
2022-12-18T02:57:06.753Z,69.11
2022-12-18T02:59:41.704Z,67.71
2022-12-18T03:02:11.981Z,68.48
2022-12-18T03:04:45.804Z,67.97
2022-12-18T03:07:17.017Z,68.77
2022-12-18T03:09:44.970Z,69.06
2022-12-18T03:12:26.352Z,68.17
2022-12-18T03:14:57.711Z,68.33
2022-12-18T03:17:24.584Z,68.64
2022-12-18T03:19:52.491Z,68.47
2022-12-18T03:22:19.010Z,69.79
2022-12-18T03:24:50.098Z,69.17
2022-12-18T03:27:19.250Z,68.05
2022-12-18T03:30:08.311Z,68.62
2022-12-18T03:32:44.414Z,67.97
2022-12-18T03:35:12.142Z,68.93
2022-12-18T03:37:38.622Z,68.43
2022-12-18T03:40:06.127Z,68.17
2022-12-18T03:42:38.761Z,68.22
2022-12-18T03:45:24.588Z,68.02
2022-12-18T03:48:01.770Z,67.51
2022-12-18T03:50:45.561Z,68.35
2022-12-18T03:53:15.734Z,69.00
2022-12-18T03:55:45.082Z,69.18
2022-12-18T03:58:12.395Z,69.65
2022-12-18T04:00:49.207Z,69.96
2022-12-18T04:03:15.973Z,70.09
2022-12-18T04:05:46.947Z,69.64
2022-12-18T04:08:15.235Z,69.39
2022-12-18T04:10:47.730Z,69.54
2022-12-18T04:13:14.360Z,69.68
2022-12-18T04:15:40.955Z,70.21
2022-12-18T04:18:11.003Z,70.74
2022-12-18T04:20:41.167Z,70.45
2022-12-18T04:23:08.575Z,70.15
2022-12-18T04:25:35.153Z,70.00
2022-12-18T04:28:11.596Z,69.97
2022-12-18T04:30:39.177Z,69.83
2022-12-18T04:33:09.315Z,69.28
2022-12-18T04:35:35.826Z,70.06
2022-12-18T04:38:02.333Z,69.89
2022-12-18T04:40:28.814Z,69.72
2022-12-18T04:42:55.541Z,68.85
2022-12-18T04:45:22.042Z,68.43
2022-12-18T04:47:48.574Z,68.56
2022-12-18T04:50:15.053Z,68.14
2022-12-18T04:52:41.571Z,68.83
2022-12-18T04:55:08.211Z,68.47
2022-12-18T04:57:34.714Z,68.57
2022-12-18T05:00:01.164Z,69.74
2022-12-18T05:02:27.703Z,69.94
2022-12-18T05:04:54.226Z,70.67
2022-12-18T05:07:20.748Z,70.92
2022-12-18T05:09:47.211Z,70.64
2022-12-18T05:12:13.682Z,70.45
2022-12-18T05:14:40.155Z,70.55
2022-12-18T05:17:06.625Z,70.54
2022-12-18T05:19:33.167Z,71.01
2022-12-18T05:21:59.659Z,71.08
2022-12-18T05:24:26.119Z,70.96
2022-12-18T05:26:52.631Z,71.23
2022-12-18T05:29:19.101Z,71.19
2022-12-18T05:31:45.677Z,70.91
2022-12-18T05:34:12.238Z,70.87
2022-12-18T05:36:39.586Z,70.97
2022-12-18T05:39:06.160Z,70.35
2022-12-18T05:41:33.055Z,70.50
2022-12-18T05:43:59.725Z,70.44
2022-12-18T05:46:26.374Z,70.04
2022-12-18T05:48:52.957Z,70.82
2022-12-18T05:51:20.465Z,70.41
2022-12-18T05:53:46.988Z,70.23
2022-12-18T05:56:18.119Z,69.99
2022-12-18T05:58:44.733Z,69.94
2022-12-18T06:01:15.682Z,69.72
2022-12-18T06:03:42.664Z,68.06
2022-12-18T06:06:16.440Z,68.03
2022-12-18T06:08:46.465Z,68.71
2022-12-18T06:11:13.510Z,68.33
2022-12-18T06:13:40.342Z,67.87
2022-12-18T06:16:07.371Z,68.44
2022-12-18T06:18:33.878Z,69.05
2022-12-18T06:21:00.574Z,69.47
2022-12-18T06:23:27.056Z,69.14
2022-12-18T06:25:53.652Z,69.83
2022-12-18T06:28:20.311Z,69.78
2022-12-18T06:30:47.746Z,70.07
2022-12-18T06:33:14.262Z,69.98
2022-12-18T06:35:40.932Z,69.92
2022-12-18T06:38:07.601Z,70.02
2022-12-18T06:40:34.199Z,70.01
2022-12-18T06:43:00.721Z,69.82
2022-12-18T06:45:27.245Z,70.15
2022-12-18T06:47:54.633Z,69.91
2022-12-18T06:50:21.105Z,70.29
2022-12-18T06:52:47.940Z,68.70
2022-12-18T06:55:14.438Z,67.04
2022-12-18T06:57:41.064Z,66.75
2022-12-18T07:00:07.992Z,67.10
2022-12-18T07:02:34.610Z,67.65
2022-12-18T07:05:04.807Z,68.13
2022-12-18T07:07:34.817Z,68.16
2022-12-18T07:10:01.707Z,68.33
2022-12-18T07:12:28.551Z,68.39
2022-12-18T07:14:55.054Z,68.78
2022-12-18T07:17:21.554Z,70.13
2022-12-18T07:19:48.053Z,69.66
2022-12-18T07:22:14.549Z,69.08
2022-12-18T07:24:41.053Z,69.08
2022-12-18T07:27:07.579Z,69.27
2022-12-18T07:29:34.625Z,68.53
2022-12-18T07:32:01.253Z,68.66
2022-12-18T07:34:27.785Z,68.72
2022-12-18T07:36:54.262Z,68.73
2022-12-18T07:39:21.080Z,68.74
2022-12-18T07:42:07.520Z,68.77
2022-12-18T07:44:34.223Z,69.63
2022-12-18T07:47:00.697Z,69.77
2022-12-18T07:49:27.181Z,69.61
2022-12-18T07:51:55.083Z,68.97
2022-12-18T07:54:21.537Z,68.46
2022-12-18T07:56:47.997Z,68.37
2022-12-18T07:59:14.483Z,68.34
2022-12-18T08:01:41.120Z,68.69
2022-12-18T08:04:09.378Z,68.91
2022-12-18T08:06:37.290Z,69.10
2022-12-18T08:09:03.794Z,69.96
2022-12-18T08:11:30.315Z,69.86
2022-12-18T08:13:56.965Z,68.93
2022-12-18T08:16:23.489Z,68.39
2022-12-18T08:18:50.753Z,69.19
2022-12-18T08:21:19.181Z,69.60
2022-12-18T08:23:48.540Z,69.31
2022-12-18T08:26:15.723Z,69.10
2022-12-18T08:28:42.356Z,68.96
2022-12-18T08:31:09.157Z,70.07
2022-12-18T08:33:36.551Z,70.20
2022-12-18T08:36:03.251Z,69.54
2022-12-18T08:38:29.786Z,69.10
2022-12-18T08:41:15.099Z,69.12
2022-12-18T08:44:00.131Z,69.10
2022-12-18T08:46:27.376Z,69.56
2022-12-18T08:48:54.400Z,70.09
2022-12-18T08:51:21.006Z,69.85
2022-12-18T08:53:48.031Z,69.43
2022-12-18T08:56:14.782Z,69.38
2022-12-18T08:58:41.626Z,68.62
2022-12-18T09:01:10.175Z,68.91
2022-12-18T09:03:36.966Z,69.73
2022-12-18T09:06:03.898Z,69.44
2022-12-18T09:08:30.440Z,68.95
2022-12-18T09:10:56.935Z,69.30
2022-12-18T09:13:23.449Z,70.23
2022-12-18T09:15:50.757Z,70.05
2022-12-18T09:18:17.954Z,70.58
2022-12-18T09:20:44.410Z,70.49
2022-12-18T09:23:11.301Z,70.22
2022-12-18T09:25:37.779Z,69.92
2022-12-18T09:28:05.051Z,69.73
2022-12-18T09:30:34.241Z,68.77
2022-12-18T09:33:01.487Z,69.65
2022-12-18T09:35:28.922Z,69.72
2022-12-18T09:37:55.603Z,69.99
2022-12-18T09:40:24.957Z,70.09
2022-12-18T09:42:58.898Z,69.85
2022-12-18T09:45:25.404Z,69.92
2022-12-18T09:47:52.350Z,69.86
2022-12-18T09:50:18.801Z,70.01
2022-12-18T09:52:46.448Z,70.34
2022-12-18T09:55:18.133Z,70.40
2022-12-18T09:57:46.678Z,70.57
2022-12-18T10:00:19.417Z,70.17
2022-12-18T10:02:46.143Z,70.04
2022-12-18T10:05:13.814Z,69.94
2022-12-18T10:08:00.541Z,70.26
2022-12-18T10:10:28.595Z,70.41
2022-12-18T10:13:04.703Z,69.66
2022-12-18T10:15:34.494Z,69.35
2022-12-18T10:18:27.358Z,69.72
2022-12-18T10:20:54.284Z,69.66
2022-12-18T10:23:43.674Z,69.05
2022-12-18T10:26:14.515Z,68.93
2022-12-18T10:28:42.314Z,68.98
2022-12-18T10:31:14.033Z,68.89
2022-12-18T10:33:40.518Z,68.34
2022-12-18T10:36:07.358Z,68.06
2022-12-18T10:38:33.896Z,67.98
2022-12-18T10:41:06.659Z,67.91
2022-12-18T10:43:34.824Z,67.88
2022-12-18T10:46:10.557Z,67.18
2022-12-18T10:48:40.630Z,66.92
2022-12-18T10:51:12.339Z,67.05
2022-12-18T10:53:41.119Z,66.30
2022-12-18T10:56:10.421Z,66.45
2022-12-18T10:58:37.780Z,66.63
2022-12-18T11:01:14.809Z,66.09
2022-12-18T11:03:45.797Z,66.38
2022-12-18T11:06:13.539Z,65.99
2022-12-18T11:08:40.865Z,65.94
2022-12-18T11:11:23.393Z,66.36
2022-12-18T11:14:03.709Z,66.42
2022-12-18T11:16:31.948Z,66.65
2022-12-18T11:19:17.078Z,66.04
2022-12-18T11:21:44.804Z,66.84
2022-12-18T11:24:35.322Z,66.42
2022-12-18T11:27:03.079Z,66.61
2022-12-18T11:29:40.635Z,67.14
2022-12-18T11:32:15.923Z,66.62
2022-12-18T11:34:42.936Z,67.60
2022-12-18T11:37:10.357Z,66.97
2022-12-18T11:39:39.565Z,67.00
2022-12-18T11:42:10.243Z,66.24
2022-12-18T11:44:51.361Z,65.61
2022-12-18T11:47:32.811Z,66.09
2022-12-18T11:50:01.830Z,66.26
2022-12-18T11:52:30.223Z,65.80
2022-12-18T11:54:57.419Z,65.60
2022-12-18T11:57:36.000Z,65.71
2022-12-18T12:00:12.990Z,65.61
2022-12-18T12:02:44.631Z,65.25
2022-12-18T12:05:14.306Z,64.68
2022-12-18T12:08:03.834Z,65.12
2022-12-18T12:10:39.258Z,64.26
2022-12-18T12:13:14.562Z,65.72
2022-12-18T12:15:59.840Z,66.05
2022-12-18T12:18:45.255Z,65.85
2022-12-18T12:21:11.747Z,65.83
2022-12-18T12:23:38.211Z,65.34
2022-12-18T12:26:08.877Z,65.36
2022-12-18T12:28:41.814Z,66.55
2022-12-18T12:31:20.631Z,66.73
2022-12-18T12:33:50.533Z,66.86
2022-12-18T12:36:33.078Z,65.51
2022-12-18T12:39:00.946Z,66.01
2022-12-18T12:41:46.607Z,65.90
2022-12-18T12:44:39.585Z,65.17
2022-12-18T12:47:14.461Z,66.17
2022-12-18T12:49:41.938Z,65.96
2022-12-18T12:52:37.528Z,65.82
2022-12-18T12:55:08.044Z,65.37
2022-12-18T12:57:39.113Z,66.21
2022-12-18T13:00:07.036Z,65.56
2022-12-18T13:02:38.538Z,64.86
2022-12-18T13:05:05.185Z,65.34
2022-12-18T13:07:39.959Z,63.77
2022-12-18T13:10:20.895Z,63.82
2022-12-18T13:12:57.044Z,63.61
2022-12-18T13:15:25.821Z,63.61
2022-12-18T13:18:11.082Z,65.08
2022-12-18T13:20:40.977Z,65.55
2022-12-18T13:23:40.782Z,64.86
2022-12-18T13:26:09.135Z,65.83
2022-12-18T13:28:47.925Z,65.32
2022-12-18T13:31:16.114Z,65.78
2022-12-18T13:34:24.706Z,64.60
2022-12-18T13:36:33.353Z,63.88
2022-12-18T13:39:23.300Z,64.88
2022-12-18T13:41:54.174Z,65.73
2022-12-18T13:44:30.956Z,65.15
2022-12-18T13:46:57.470Z,65.19
2022-12-18T13:49:25.324Z,64.30
2022-12-18T13:51:53.013Z,64.93
2022-12-18T13:54:21.042Z,64.26
2022-12-18T13:56:48.119Z,65.69
2022-12-18T13:59:17.538Z,65.27
2022-12-18T14:01:58.114Z,64.20
2022-12-18T14:04:27.174Z,64.52
2022-12-18T14:06:58.523Z,66.29
2022-12-18T14:09:30.008Z,66.77
2022-12-18T14:12:15.686Z,66.59
2022-12-18T14:14:43.270Z,66.63
2022-12-18T14:17:13.501Z,66.22
2022-12-18T14:19:44.124Z,66.43
2022-12-18T14:22:17.898Z,66.49
2022-12-18T14:24:44.373Z,66.14
2022-12-18T14:27:18.527Z,67.20
2022-12-18T14:29:45.291Z,67.67
2022-12-18T14:32:18.734Z,67.91
2022-12-18T14:34:46.598Z,67.39
2022-12-18T14:37:14.181Z,67.31
2022-12-18T14:39:41.082Z,67.63
2022-12-18T14:42:11.074Z,68.94
2022-12-18T14:44:50.547Z,67.64
2022-12-18T14:47:24.112Z,67.66
2022-12-18T14:49:50.600Z,67.79
2022-12-18T14:52:22.311Z,67.70
2022-12-18T14:54:48.818Z,67.74
2022-12-18T14:57:25.333Z,67.14
2022-12-18T14:59:51.876Z,67.61
2022-12-18T15:02:25.339Z,67.94
2022-12-18T15:05:02.051Z,68.78
2022-12-18T15:07:28.639Z,68.82
2022-12-18T15:10:24.518Z,68.45
2022-12-18T15:12:51.061Z,69.18
2022-12-18T15:15:40.370Z,69.00
2022-12-18T15:18:09.806Z,69.45
2022-12-18T15:20:51.521Z,69.52
2022-12-18T15:23:21.198Z,68.98
2022-12-18T15:25:48.231Z,69.16
2022-12-18T15:28:19.314Z,69.79
2022-12-18T15:31:04.340Z,70.41
2022-12-18T15:33:33.018Z,70.67
2022-12-18T15:36:04.098Z,70.68
2022-12-18T15:38:30.719Z,70.69
2022-12-18T15:40:57.552Z,70.14
2022-12-18T15:43:37.558Z,69.99
2022-12-18T15:46:06.059Z,70.14
2022-12-18T15:48:36.479Z,69.60
2022-12-18T15:51:02.986Z,69.48
2022-12-18T15:53:30.681Z,69.98
2022-12-18T15:56:15.936Z,69.68
2022-12-18T15:58:42.917Z,70.27
2022-12-18T16:01:10.182Z,70.59
2022-12-18T16:03:36.842Z,69.93
2022-12-18T16:06:04.107Z,70.18
2022-12-18T16:08:31.072Z,70.48
2022-12-18T16:10:58.147Z,70.28
2022-12-18T16:13:24.615Z,70.13
2022-12-18T16:15:51.292Z,70.56
2022-12-18T16:18:17.849Z,70.75
2022-12-18T16:20:44.313Z,70.64
2022-12-18T16:23:10.911Z,71.01
2022-12-18T16:25:37.379Z,71.26
2022-12-18T16:28:10.606Z,70.93
2022-12-18T16:30:39.703Z,70.92
2022-12-18T16:33:07.494Z,70.82
2022-12-18T16:35:34.478Z,71.06
2022-12-18T16:38:01.015Z,71.08
2022-12-18T16:40:27.503Z,71.27
2022-12-18T16:42:56.415Z,71.08
2022-12-18T16:45:34.203Z,71.08
2022-12-18T16:48:00.903Z,71.44
2022-12-18T16:50:27.566Z,71.43
2022-12-18T16:52:54.051Z,71.33
2022-12-18T16:55:20.510Z,71.20
2022-12-18T16:57:47.047Z,71.10
2022-12-18T17:00:13.857Z,70.65
2022-12-18T17:02:40.590Z,70.67
2022-12-18T17:05:07.553Z,71.07
2022-12-18T17:07:34.172Z,70.74
2022-12-18T17:10:01.834Z,71.01
2022-12-18T17:12:28.398Z,71.12
2022-12-18T17:14:55.003Z,70.90
2022-12-18T17:17:22.988Z,70.88
2022-12-18T17:19:50.450Z,71.05
2022-12-18T17:22:17.061Z,70.93
2022-12-18T17:24:43.606Z,70.71
2022-12-18T17:27:10.155Z,71.73
2022-12-18T17:29:37.637Z,72.12
2022-12-18T17:32:05.659Z,71.90
2022-12-18T17:34:32.205Z,72.15
2022-12-18T17:36:58.730Z,72.01
2022-12-18T17:39:25.848Z,71.54
2022-12-18T17:41:52.383Z,71.21
2022-12-18T17:44:19.390Z,71.34
2022-12-18T17:46:47.757Z,71.13
2022-12-18T17:49:14.638Z,70.76
2022-12-18T17:51:43.119Z,71.17
2022-12-18T17:54:10.036Z,71.07
2022-12-18T17:56:36.595Z,71.14
2022-12-18T17:59:03.112Z,72.16
2022-12-18T18:01:29.734Z,71.70
2022-12-18T18:03:56.475Z,71.83
2022-12-18T18:06:23.333Z,71.63
2022-12-18T18:08:49.887Z,70.69
2022-12-18T18:11:36.066Z,71.00
2022-12-18T18:14:05.201Z,70.97
2022-12-18T18:16:35.813Z,70.99
2022-12-18T18:19:04.233Z,70.99
2022-12-18T18:21:31.109Z,70.51
2022-12-18T18:24:04.379Z,71.16
2022-12-18T18:26:31.326Z,70.59
2022-12-18T18:28:58.543Z,71.22
2022-12-18T18:31:25.591Z,70.98
2022-12-18T18:33:52.196Z,70.93
2022-12-18T18:36:18.660Z,70.59
2022-12-18T18:38:48.387Z,70.49
2022-12-18T18:41:15.305Z,70.70
2022-12-18T18:43:42.192Z,70.65
2022-12-18T18:46:09.524Z,70.19
2022-12-18T18:48:36.642Z,70.60
2022-12-18T18:51:13.946Z,70.20
2022-12-18T18:53:50.254Z,70.13
2022-12-18T18:56:56.437Z,70.20
2022-12-18T18:59:04.297Z,70.65
2022-12-18T19:01:31.092Z,69.52
2022-12-18T19:03:57.667Z,70.47
2022-12-18T19:06:25.686Z,69.51
2022-12-18T19:08:54.090Z,69.65
2022-12-18T19:11:39.829Z,69.53
2022-12-18T19:14:07.075Z,69.92
2022-12-18T19:16:33.728Z,70.00
2022-12-18T19:19:02.254Z,69.82
2022-12-18T19:21:31.370Z,69.95
2022-12-18T19:24:00.678Z,69.80
2022-12-18T19:26:28.456Z,70.23
2022-12-18T19:29:00.192Z,70.37
2022-12-18T19:31:31.799Z,70.44
2022-12-18T19:34:01.732Z,69.46
2022-12-18T19:36:28.884Z,69.67
2022-12-18T19:38:57.286Z,70.23
2022-12-18T19:41:24.179Z,70.46
2022-12-18T19:43:52.511Z,70.13
2022-12-18T19:46:20.333Z,69.88
2022-12-18T19:48:47.373Z,70.04
2022-12-18T19:51:15.070Z,71.02
2022-12-18T19:53:41.708Z,71.42
2022-12-18T19:56:12.269Z,71.02
2022-12-18T19:58:39.273Z,70.27
2022-12-18T20:01:06.111Z,70.65
2022-12-18T20:03:34.697Z,70.60
2022-12-18T20:06:08.587Z,69.82
2022-12-18T20:08:35.082Z,69.94
2022-12-18T20:11:01.656Z,69.85
2022-12-18T20:13:28.259Z,69.20
2022-12-18T20:15:54.738Z,69.60
2022-12-18T20:18:21.291Z,69.68
2022-12-18T20:20:48.273Z,69.76
2022-12-18T20:23:16.698Z,70.18
2022-12-18T20:25:43.337Z,69.46
2022-12-18T20:28:09.863Z,69.77
2022-12-18T20:30:36.466Z,70.06
2022-12-18T20:33:02.963Z,69.89
2022-12-18T20:35:31.172Z,69.94
2022-12-18T20:37:57.903Z,70.03
2022-12-18T20:40:26.433Z,69.85
2022-12-18T20:42:52.955Z,70.00
2022-12-18T20:45:19.778Z,70.20
2022-12-18T20:47:46.388Z,69.64
2022-12-18T20:50:12.959Z,69.28
2022-12-18T20:52:39.661Z,70.04
2022-12-18T20:55:06.360Z,69.38
2022-12-18T20:57:32.980Z,69.64
2022-12-18T20:59:59.494Z,69.74
2022-12-18T21:02:26.114Z,69.93
2022-12-18T21:04:53.458Z,70.23
2022-12-18T21:07:19.960Z,70.02
2022-12-18T21:09:46.451Z,70.62
2022-12-18T21:12:35.083Z,70.46
2022-12-18T21:15:09.698Z,71.34
2022-12-18T21:17:44.045Z,70.09
2022-12-18T21:20:11.344Z,69.44
2022-12-18T21:22:44.187Z,69.68
2022-12-18T21:25:10.681Z,69.31
2022-12-18T21:27:37.218Z,69.32
2022-12-18T21:30:03.894Z,69.35
2022-12-18T21:32:32.176Z,69.30
2022-12-18T21:35:00.157Z,69.28
2022-12-18T21:37:26.763Z,69.35
2022-12-18T21:39:53.277Z,69.26
2022-12-18T21:42:38.357Z,68.48
2022-12-18T21:45:05.198Z,68.86
2022-12-18T21:47:31.728Z,68.69
2022-12-18T21:49:58.263Z,69.09
2022-12-18T21:52:32.017Z,69.11
2022-12-18T21:55:08.909Z,68.75
2022-12-18T21:57:37.195Z,69.22
2022-12-18T22:00:04.261Z,68.87
2022-12-18T22:02:38.550Z,68.62
2022-12-18T22:05:05.234Z,68.97
2022-12-18T22:07:31.789Z,69.95
2022-12-18T22:09:58.496Z,70.01
2022-12-18T22:12:35.798Z,69.48
2022-12-18T22:15:10.996Z,69.60
2022-12-18T22:17:39.055Z,69.49
2022-12-18T22:20:05.767Z,68.71
2022-12-18T22:22:32.290Z,68.42
2022-12-18T22:24:58.759Z,68.80
2022-12-18T22:27:25.282Z,68.49
2022-12-18T22:30:06.761Z,68.66
2022-12-18T22:32:33.700Z,68.94
2022-12-18T22:35:05.307Z,69.10
2022-12-18T22:37:34.751Z,69.05
2022-12-18T22:40:03.556Z,69.23
2022-12-18T22:42:31.065Z,69.43
2022-12-18T22:44:57.648Z,70.01
2022-12-18T22:47:28.013Z,69.89
2022-12-18T22:49:56.169Z,69.56
2022-12-18T22:52:22.673Z,68.91
2022-12-18T22:54:51.498Z,68.58
2022-12-18T22:57:20.022Z,68.59
2022-12-18T22:59:46.479Z,68.83
2022-12-18T23:02:13.131Z,68.83
2022-12-18T23:04:39.862Z,69.12
2022-12-18T23:07:06.439Z,69.06
2022-12-18T23:09:32.941Z,68.97
2022-12-18T23:11:59.399Z,69.13
2022-12-18T23:14:25.898Z,69.31
2022-12-18T23:16:53.035Z,69.09
2022-12-18T23:19:19.950Z,69.33
2022-12-18T23:21:46.419Z,69.81
2022-12-18T23:24:12.901Z,69.19
2022-12-18T23:26:39.409Z,69.76
2022-12-18T23:29:06.028Z,69.31
2022-12-18T23:31:33.466Z,69.58
2022-12-18T23:34:00.383Z,70.06
2022-12-18T23:36:27.058Z,69.39
2022-12-18T23:38:54.373Z,70.02
2022-12-18T23:41:22.063Z,69.85
2022-12-18T23:43:48.863Z,69.11
2022-12-18T23:46:20.099Z,68.74
2022-12-18T23:48:47.010Z,69.52
2022-12-18T23:51:13.984Z,69.24
2022-12-18T23:53:40.489Z,70.03
2022-12-18T23:56:07.374Z,69.51
2022-12-18T23:58:34.361Z,69.97
